Pomona, New York
Current Conditions -  °F | °C
As of 6:56 AM on Friday 19 Dec 2014 (Local Time) from KHPN Reporting Station
Broken Clouds Broken Clouds  
Wind Chill: 26°   Ceiling: 3200
Heat Index: 35°   Visibility: 10mi
Dew Point: 23°   Wind: 15mph
Humidity: 61%   Direction: 300°WNW
Pressure: 29.97"   Gusts: 18mph
Location:  41.17°N, 74.04°W
Report Text: KHPN 191156Z 30013G16KT 10SM BKN032 02/M05 A2997 RMK AO2 SLP154 T00171050 10022 20011 53014
Loading
Personal Weather Stations






























Interactive Weather Map New forecast layout! Learn more

10-Day Weather Forecast

Advertisements
Track Severe Weather on mobile